Time;durP1;ratioP1;P1;durP2;ratioP2;P2;SDS_P1;SDS_P2;PMS_P1;PMS_P2;Temp;Humidity;BMP_temperature;BMP_pressure;BME280_temperature;BME280_humidity;BME280_pressure;Samples;Min_cycle;Max_cycle;Signal;HPM_P1;HPM_P2
2021/12/26 00:01:31;;;;;;;176.65;72.75;;;;;;;;;;5096110;28;20036;-66
2021/12/26 00:03:57;;;;;;;163.65;66.28;;;;;;;;;;5077652;28;20115;-66
2021/12/26 00:06:25;;;;;;;144.77;59.97;;;;;;;;;;5095457;28;20130;-66
2021/12/26 00:08:52;;;;;;;142.20;56.20;;;;;;;;;;5095676;28;20030;-66
2021/12/26 00:11:17;;;;;;;126.80;54.15;;;;;;;;;;5095820;28;20401;-66
2021/12/26 00:13:43;;;;;;;125.78;53.00;;;;;;;;;;5095742;28;20119;-66
2021/12/26 00:16:09;;;;;;;107.03;47.97;;;;;;;;;;5095870;28;20044;-67
2021/12/26 00:18:35;;;;;;;92.07;44.60;;;;;;;;;;5095541;28;20142;-66
2021/12/26 00:21:01;;;;;;;90.63;43.15;;;;;;;;;;5094956;28;20060;-74
2021/12/26 00:23:27;;;;;;;101.38;46.00;;;;;;;;;;5094275;28;20165;-74
2021/12/26 00:25:55;;;;;;;106.30;49.13;;;;;;;;;;5095588;28;20036;-74
2021/12/26 00:28:20;;;;;;;100.35;51.55;;;;;;;;;;5095982;28;20451;-74
2021/12/26 00:30:48;;;;;;;94.70;48.33;;;;;;;;;;5095838;28;20085;-74
2021/12/26 00:33:13;;;;;;;97.38;45.65;;;;;;;;;;5095626;28;20065;-65
2021/12/26 00:35:39;;;;;;;94.30;46.25;;;;;;;;;;5060798;28;20074;-65
2021/12/26 00:38:05;;;;;;;94.80;46.05;;;;;;;;;;5095447;28;20050;-66
2021/12/26 00:40:32;;;;;;;93.38;44.83;;;;;;;;;;5094357;28;20032;-66
2021/12/26 00:42:58;;;;;;;97.47;46.92;;;;;;;;;;5077058;28;20020;-73
2021/12/26 00:45:26;;;;;;;141.82;63.90;;;;;;;;;;5095226;28;20470;-73
2021/12/26 00:47:54;;;;;;;123.15;57.40;;;;;;;;;;5060922;28;20047;-73
2021/12/26 00:50:23;;;;;;;114.38;52.55;;;;;;;;;;5073346;28;20040;-72
2021/12/26 00:52:50;;;;;;;111.15;51.67;;;;;;;;;;5073763;28;20033;-65
2021/12/26 00:55:17;;;;;;;109.05;50.58;;;;;;;;;;5073516;28;20131;-64
2021/12/26 00:57:44;;;;;;;101.22;49.20;;;;;;;;;;5073725;28;20117;-64
2021/12/26 01:00:17;;;;;;;99.63;47.08;;;;;;;;;;5074549;28;20036;-65
2021/12/26 01:02:45;;;;;;;98.30;50.10;;;;;;;;;;5072621;28;20036;-65
2021/12/26 01:05:11;;;;;;;92.50;46.30;;;;;;;;;;5073266;28;20494;-66
2021/12/26 01:10:10;;;;;;;118.03;57.50;;;;;;;;;;5073137;28;20059;-74
2021/12/26 01:12:37;;;;;;;193.00;87.82;;;;;;;;;;5072735;28;20450;-66
2021/12/26 01:15:08;;;;;;;448.67;238.10;;;;;;;;;;5073300;28;20033;-67
2021/12/26 01:17:40;;;;;;;148.52;75.70;;;;;;;;;;5073208;28;20043;-66
2021/12/26 01:20:37;;;;;;;205.95;101.80;;;;;;;;;;5072956;28;20036;-67
2021/12/26 01:23:02;;;;;;;137.85;69.95;;;;;;;;;;5074450;28;20028;-66
2021/12/26 01:25:28;;;;;;;181.15;98.03;;;;;;;;;;5073074;28;20447;-66
2021/12/26 01:27:53;;;;;;;185.55;106.32;;;;;;;;;;5073184;28;20032;-66
2021/12/26 01:30:20;;;;;;;86.32;41.22;;;;;;;;;;5073128;28;20343;-66
2021/12/26 01:32:50;;;;;;;83.82;39.85;;;;;;;;;;5072868;28;20486;-66
2021/12/26 01:35:34;;;;;;;80.80;38.42;;;;;;;;;;5074300;28;20109;-66
2021/12/26 01:38:22;;;;;;;88.03;40.78;;;;;;;;;;5053603;28;20114;-65
2021/12/26 01:41:09;;;;;;;84.63;40.50;;;;;;;;;;5073666;28;20055;-66
2021/12/26 01:43:44;;;;;;;87.78;41.15;;;;;;;;;;5072834;28;20039;-66
2021/12/26 01:46:25;;;;;;;104.00;51.25;;;;;;;;;;5072719;28;20033;-66
2021/12/26 01:49:01;;;;;;;95.90;44.65;;;;;;;;;;5075123;28;20040;-64
2021/12/26 01:51:27;;;;;;;91.40;44.42;;;;;;;;;;5076118;28;20036;-72
2021/12/26 01:53:53;;;;;;;103.10;48.22;;;;;;;;;;5059407;28;20032;-72
2021/12/26 01:56:19;;;;;;;82.63;41.10;;;;;;;;;;5075483;28;20032;-73
2021/12/26 01:58:46;;;;;;;82.68;39.03;;;;;;;;;;5075504;28;20031;-73
2021/12/26 02:01:30;;;;;;;86.13;41.03;;;;;;;;;;5093327;28;20043;-64
2021/12/26 02:03:56;;;;;;;82.47;39.58;;;;;;;;;;5058732;28;20123;-65
2021/12/26 02:06:21;;;;;;;88.00;39.53;;;;;;;;;;5058909;28;20527;-65
2021/12/26 02:08:49;;;;;;;85.03;38.30;;;;;;;;;;5075649;28;20040;-65
2021/12/26 02:11:15;;;;;;;78.43;37.83;;;;;;;;;;5075575;28;20021;-65
2021/12/26 02:13:41;;;;;;;86.00;39.75;;;;;;;;;;5075401;28;20036;-64
2021/12/26 02:16:08;;;;;;;79.55;39.78;;;;;;;;;;5075109;28;20032;-66
2021/12/26 02:18:34;;;;;;;85.25;41.72;;;;;;;;;;5093560;28;20059;-65
2021/12/26 02:24:02;;;;;;;80.40;40.17;;;;;;;;;;5075530;28;20439;-66
2021/12/26 02:29:12;;;;;;;94.85;46.92;;;;;;;;;;5075629;28;20040;-66
2021/12/26 02:31:38;;;;;;;148.48;79.97;;;;;;;;;;5075188;28;20073;-74
2021/12/26 02:34:04;;;;;;;84.53;40.25;;;;;;;;;;5075327;28;20032;-72
2021/12/26 02:36:29;;;;;;;73.15;35.83;;;;;;;;;;5075318;28;20497;-72
2021/12/26 02:38:55;;;;;;;69.57;33.10;;;;;;;;;;5074441;28;20035;-71
2021/12/26 02:41:23;;;;;;;68.45;32.13;;;;;;;;;;5093394;28;20054;-72
2021/12/26 02:43:52;;;;;;;69.55;32.05;;;;;;;;;;5075170;28;20123;-74
2021/12/26 02:46:21;;;;;;;68.55;33.08;;;;;;;;;;5074905;28;20060;-75
2021/12/26 02:48:47;;;;;;;68.10;32.05;;;;;;;;;;5074277;28;20047;-74
2021/12/26 02:51:13;;;;;;;69.65;29.98;;;;;;;;;;5057897;28;20040;-75
2021/12/26 02:53:54;;;;;;;71.78;34.38;;;;;;;;;;5074936;28;20039;-75
2021/12/26 02:56:20;;;;;;;68.43;32.05;;;;;;;;;;5075075;28;20047;-74
2021/12/26 02:58:47;;;;;;;66.00;29.52;;;;;;;;;;5075193;28;20024;-73
2021/12/26 03:01:18;;;;;;;66.22;30.95;;;;;;;;;;5093470;28;20036;-73
2021/12/26 03:03:44;;;;;;;70.43;31.63;;;;;;;;;;5075385;28;20035;-73
2021/12/26 03:06:38;;;;;;;58.67;29.02;;;;;;;;;;5075097;28;20020;-73
2021/12/26 03:09:04;;;;;;;61.22;29.38;;;;;;;;;;5074840;28;20138;-73
2021/12/26 03:11:30;;;;;;;65.15;30.20;;;;;;;;;;5075485;28;20063;-73
2021/12/26 03:13:56;;;;;;;63.72;27.65;;;;;;;;;;5075136;28;20036;-72
2021/12/26 03:16:21;;;;;;;61.35;27.95;;;;;;;;;;5093173;28;20081;-72
2021/12/26 03:18:48;;;;;;;58.25;28.27;;;;;;;;;;5075391;28;20036;-73
2021/12/26 03:21:14;;;;;;;90.90;37.35;;;;;;;;;;5075072;28;20509;-73
2021/12/26 03:23:43;;;;;;;95.35;43.70;;;;;;;;;;5093179;28;20036;-72
2021/12/26 03:26:10;;;;;;;90.43;42.53;;;;;;;;;;5077582;28;20392;-74
2021/12/26 03:28:35;;;;;;;88.55;40.15;;;;;;;;;;5078667;28;20040;-73
2021/12/26 03:31:02;;;;;;;84.93;38.33;;;;;;;;;;5061841;28;20492;-66
2021/12/26 03:33:30;;;;;;;100.63;43.33;;;;;;;;;;5078529;28;20105;-66
2021/12/26 03:35:56;;;;;;;132.50;53.33;;;;;;;;;;5078433;28;20028;-67
2021/12/26 03:38:22;;;;;;;152.73;62.35;;;;;;;;;;5096207;28;20032;-73
2021/12/26 03:40:48;;;;;;;130.13;55.45;;;;;;;;;;5095790;28;20066;-66
2021/12/26 03:43:15;;;;;;;119.93;52.72;;;;;;;;;;5078172;28;20513;-66
2021/12/26 03:45:44;;;;;;;92.85;39.75;;;;;;;;;;5077965;28;20024;-66
2021/12/26 03:48:10;;;;;;;83.07;38.63;;;;;;;;;;5078170;28;20538;-66
2021/12/26 03:50:39;;;;;;;78.93;36.72;;;;;;;;;;5077857;28;20052;-66
2021/12/26 03:53:05;;;;;;;80.57;36.20;;;;;;;;;;5078250;28;20040;-66
2021/12/26 03:55:30;;;;;;;86.72;38.60;;;;;;;;;;5077950;28;20478;-66
2021/12/26 03:57:56;;;;;;;76.25;31.42;;;;;;;;;;5078184;28;20044;-66
2021/12/26 04:00:23;;;;;;;71.55;30.65;;;;;;;;;;5077773;28;20143;-66
2021/12/26 04:02:49;;;;;;;74.72;31.35;;;;;;;;;;5078331;28;20131;-66
2021/12/26 04:05:16;;;;;;;78.10;32.75;;;;;;;;;;5061429;28;20024;-64
2021/12/26 04:07:42;;;;;;;108.10;40.75;;;;;;;;;;5077926;28;20127;-65
2021/12/26 04:10:08;;;;;;;126.82;45.70;;;;;;;;;;5077400;28;20036;-66
2021/12/26 04:12:35;;;;;;;125.00;45.42;;;;;;;;;;5077629;28;20040;-67
2021/12/26 04:15:06;;;;;;;102.65;41.28;;;;;;;;;;5077286;28;20040;-67
2021/12/26 04:17:32;;;;;;;105.20;40.38;;;;;;;;;;5061214;28;20463;-67
2021/12/26 04:19:57;;;;;;;101.60;40.45;;;;;;;;;;5077903;28;20074;-67
2021/12/26 04:22:23;;;;;;;96.55;40.38;;;;;;;;;;5096029;28;20036;-64
2021/12/26 04:24:48;;;;;;;99.15;42.35;;;;;;;;;;5077486;28;20099;-66
2021/12/26 04:27:14;;;;;;;94.93;41.17;;;;;;;;;;5077661;28;20063;-66
2021/12/26 04:29:40;;;;;;;100.70;44.55;;;;;;;;;;5094815;28;20020;-74
2021/12/26 04:32:08;;;;;;;83.43;37.53;;;;;;;;;;5076026;28;20040;-73
2021/12/26 04:34:34;;;;;;;74.10;33.53;;;;;;;;;;5076931;28;20028;-73
2021/12/26 04:36:59;;;;;;;79.03;34.67;;;;;;;;;;5075525;28;20073;-71
2021/12/26 04:39:24;;;;;;;83.75;39.88;;;;;;;;;;5076597;28;20033;-66
2021/12/26 04:41:50;;;;;;;70.68;34.88;;;;;;;;;;5077212;28;20040;-68
2021/12/26 04:44:40;;;;;;;62.13;29.92;;;;;;;;;;5056535;28;20028;-68
2021/12/26 04:47:25;;;;;;;58.25;25.90;;;;;;;;;;5094323;28;20036;-68
2021/12/26 04:49:51;;;;;;;55.85;24.27;;;;;;;;;;5073334;28;20138;-66
2021/12/26 04:52:17;;;;;;;56.35;25.73;;;;;;;;;;5057299;28;20044;-66
2021/12/26 04:54:42;;;;;;;105.93;55.63;;;;;;;;;;5073830;28;20037;-66
2021/12/26 04:57:08;;;;;;;121.47;71.68;;;;;;;;;;5073712;28;20032;-67
2021/12/26 04:59:33;;;;;;;100.60;63.00;;;;;;;;;;5073487;28;20040;-67
2021/12/26 05:01:59;;;;;;;82.32;51.45;;;;;;;;;;5074565;28;20062;-67
2021/12/26 05:04:26;;;;;;;74.20;43.70;;;;;;;;;;5074302;28;20094;-67
2021/12/26 05:06:51;;;;;;;66.22;38.10;;;;;;;;;;5073304;28;20487;-67
2021/12/26 05:09:16;;;;;;;59.63;31.40;;;;;;;;;;5074350;28;20033;-67
2021/12/26 05:11:42;;;;;;;48.25;24.10;;;;;;;;;;5073492;28;20462;-72
2021/12/26 05:14:08;;;;;;;45.05;22.55;;;;;;;;;;5072964;28;20564;-67
2021/12/26 05:16:33;;;;;;;40.10;19.95;;;;;;;;;;5056249;28;20034;-67
2021/12/26 05:18:59;;;;;;;38.88;19.38;;;;;;;;;;5072876;28;20446;-67
2021/12/26 05:21:25;;;;;;;36.97;18.08;;;;;;;;;;5072596;28;20115;-67
2021/12/26 05:23:50;;;;;;;78.75;41.92;;;;;;;;;;5072997;28;20028;-67
2021/12/26 05:26:16;;;;;;;99.28;55.38;;;;;;;;;;5072751;28;20390;-67
2021/12/26 05:28:42;;;;;;;73.95;38.92;;;;;;;;;;5072740;28;20434;-67
2021/12/26 05:31:08;;;;;;;64.88;33.70;;;;;;;;;;5072420;28;20038;-66
2021/12/26 05:33:40;;;;;;;64.57;34.60;;;;;;;;;;5072381;28;20036;-67
2021/12/26 05:36:05;;;;;;;69.28;35.47;;;;;;;;;;5072411;28;20044;-71
2021/12/26 05:38:36;;;;;;;129.27;88.82;;;;;;;;;;5072559;28;20422;-72
2021/12/26 05:41:02;;;;;;;147.15;98.40;;;;;;;;;;5072608;28;20083;-72
2021/12/26 05:43:28;;;;;;;509.33;324.10;;;;;;;;;;5072720;28;20029;-73
2021/12/26 05:45:55;;;;;;;111.55;61.90;;;;;;;;;;5072990;28;20032;-72
2021/12/26 05:48:22;;;;;;;63.95;31.48;;;;;;;;;;5072010;28;20123;-71
2021/12/26 05:50:49;;;;;;;154.60;73.45;;;;;;;;;;5072384;28;20123;-65
2021/12/26 05:53:37;;;;;;;504.05;254.95;;;;;;;;;;5073771;28;20036;-65
2021/12/26 05:56:03;;;;;;;517.67;245.75;;;;;;;;;;5072085;28;20055;-65
2021/12/26 05:58:30;;;;;;;72.90;34.92;;;;;;;;;;5071802;28;20032;-69
2021/12/26 06:00:57;;;;;;;45.40;22.73;;;;;;;;;;5073273;28;20115;-68
2021/12/26 06:03:22;;;;;;;65.03;30.77;;;;;;;;;;5071806;28;20056;-67
2021/12/26 06:05:49;;;;;;;63.38;29.65;;;;;;;;;;5072421;28;20033;-67
2021/12/26 06:08:17;;;;;;;48.13;22.48;;;;;;;;;;5071928;28;20360;-67
2021/12/26 06:10:43;;;;;;;84.45;40.58;;;;;;;;;;5071659;28;20048;-67
2021/12/26 06:13:09;;;;;;;118.95;61.55;;;;;;;;;;5071521;28;20386;-73
2021/12/26 06:15:35;;;;;;;285.25;168.82;;;;;;;;;;5072020;28;20037;-73
2021/12/26 06:18:02;;;;;;;114.65;67.85;;;;;;;;;;5073766;28;20089;-73
2021/12/26 06:20:50;;;;;;;65.32;35.75;;;;;;;;;;5073430;28;20056;-74
2021/12/26 06:23:33;;;;;;;45.53;22.55;;;;;;;;;;5073947;28;20048;-73
2021/12/26 06:26:25;;;;;;;42.00;22.55;;;;;;;;;;5031425;28;20065;-73
2021/12/26 06:28:51;;;;;;;42.97;21.33;;;;;;;;;;5065679;28;20561;-73
2021/12/26 06:31:39;;;;;;;32.70;17.77;;;;;;;;;;5033767;28;20029;-73
2021/12/26 06:34:25;;;;;;;35.15;18.38;;;;;;;;;;5073535;28;20040;-73
2021/12/26 06:37:09;;;;;;;34.40;17.77;;;;;;;;;;5073741;28;20039;-73
2021/12/26 06:39:54;;;;;;;27.55;16.02;;;;;;;;;;5072611;28;20139;-73
2021/12/26 06:42:42;;;;;;;31.30;16.27;;;;;;;;;;5073569;28;20032;-73
2021/12/26 06:45:26;;;;;;;39.90;22.02;;;;;;;;;;5073603;28;20063;-73
2021/12/26 06:48:10;;;;;;;97.57;59.40;;;;;;;;;;5073327;28;20043;-73
2021/12/26 06:50:38;;;;;;;101.13;62.72;;;;;;;;;;5071458;28;20380;-74
2021/12/26 06:53:08;;;;;;;73.78;44.20;;;;;;;;;;5072734;28;20036;-74
2021/12/26 06:55:34;;;;;;;;;;;;;;;;;;5071880;28;20121;-73
2021/12/26 06:58:00;;;;;;;47.42;25.88;;;;;;;;;;5073320;28;19905;-73
2021/12/26 07:00:25;;;;;;;53.80;30.15;;;;;;;;;;5072778;28;20058;-72
2021/12/26 07:02:51;;;;;;;62.80;35.10;;;;;;;;;;5075332;28;20035;-67
2021/12/26 07:05:18;;;;;;;72.93;40.10;;;;;;;;;;5075859;28;20489;-66
2021/12/26 07:07:57;;;;;;;47.17;27.25;;;;;;;;;;5075753;28;20078;-66
2021/12/26 07:10:23;;;;;;;41.95;23.48;;;;;;;;;;5073839;28;20046;-67
2021/12/26 07:12:49;;;;;;;49.50;29.10;;;;;;;;;;5074894;28;20032;-66
2021/12/26 07:15:28;;;;;;;58.08;31.80;;;;;;;;;;5075546;28;20476;-66
2021/12/26 07:17:59;;;;;;;62.63;36.88;;;;;;;;;;5074815;28;20044;-65
2021/12/26 07:20:27;;;;;;;80.55;45.20;;;;;;;;;;5074504;28;20506;-75
2021/12/26 07:23:11;;;;;;;101.05;49.42;;;;;;;;;;5076901;28;20386;-74
2021/12/26 07:25:45;;;;;;;102.90;40.72;;;;;;;;;;5075348;28;20039;-73
2021/12/26 07:28:14;;;;;;;78.68;30.88;;;;;;;;;;5075477;28;20029;-73
2021/12/26 07:30:59;;;;;;;73.88;29.58;;;;;;;;;;5076654;28;20042;-74
2021/12/26 07:33:24;;;;;;;55.65;24.52;;;;;;;;;;5074315;28;20405;-74
2021/12/26 07:35:57;;;;;;;51.10;22.93;;;;;;;;;;5056901;28;20394;-74
2021/12/26 07:38:37;;;;;;;49.88;24.67;;;;;;;;;;5073101;28;20051;-75
2021/12/26 07:41:03;;;;;;;71.07;32.67;;;;;;;;;;5073335;28;20044;-67
2021/12/26 07:43:32;;;;;;;47.95;26.00;;;;;;;;;;5076064;28;20363;-67
2021/12/26 07:46:24;;;;;;;55.83;27.95;;;;;;;;;;5058950;28;20132;-74
2021/12/26 07:48:52;;;;;;;65.63;33.53;;;;;;;;;;5075592;28;20060;-74
2021/12/26 07:51:38;;;;;;;281.70;157.35;;;;;;;;;;5049003;28;20770;-68
2021/12/26 07:54:24;;;;;;;59.28;32.55;;;;;;;;;;5094648;28;20062;-75
2021/12/26 07:57:08;;;;;;;64.47;35.05;;;;;;;;;;5094525;28;20043;-68
2021/12/26 08:00:12;;;;;;;65.15;32.78;;;;;;;;;;5053257;28;20072;-68
2021/12/26 08:02:53;;;;;;;;;;;;;;;;;;5052929;28;20105;-68
2021/12/26 08:05:38;;;;;;;71.85;36.72;;;;;;;;;;5082333;28;19908;-68
2021/12/26 08:08:13;;;;;;;69.43;36.05;;;;;;;;;;5077452;28;20036;-68
2021/12/26 08:10:39;;;;;;;63.60;33.72;;;;;;;;;;5075482;28;20379;-68
2021/12/26 08:13:04;;;;;;;63.45;32.58;;;;;;;;;;5058893;28;20058;-68
2021/12/26 08:15:30;;;;;;;54.70;30.00;;;;;;;;;;5093646;28;20032;-68
2021/12/26 08:17:55;;;;;;;47.92;24.05;;;;;;;;;;5093542;28;20394;-68
2021/12/26 08:20:21;;;;;;;43.83;22.08;;;;;;;;;;5094220;28;20126;-67
2021/12/26 08:22:46;;;;;;;42.00;21.98;;;;;;;;;;5095309;28;20032;-67
2021/12/26 08:25:12;;;;;;;42.58;21.63;;;;;;;;;;5095746;28;20028;-67
2021/12/26 08:27:37;;;;;;;42.03;21.10;;;;;;;;;;5077715;28;20428;-67
2021/12/26 08:30:04;;;;;;;39.92;21.08;;;;;;;;;;5095827;28;20127;-67
2021/12/26 08:32:32;;;;;;;53.83;25.70;;;;;;;;;;5095625;28;20043;-67
2021/12/26 08:35:00;;;;;;;56.92;33.15;;;;;;;;;;5096082;28;20039;-67
2021/12/26 08:37:27;;;;;;;51.00;26.80;;;;;;;;;;5113143;28;20028;-72
2021/12/26 08:39:53;;;;;;;74.22;35.67;;;;;;;;;;5115964;28;20040;-72
2021/12/26 08:42:19;;;;;;;83.28;37.25;;;;;;;;;;5116109;28;20073;-72
2021/12/26 08:44:45;;;;;;;117.55;46.30;;;;;;;;;;5115945;28;20040;-73
2021/12/26 08:47:11;;;;;;;97.25;37.97;;;;;;;;;;5115866;28;20035;-72
2021/12/26 08:49:37;;;;;;;47.85;24.85;;;;;;;;;;5115746;28;20054;-73
2021/12/26 08:52:03;;;;;;;32.60;18.95;;;;;;;;;;5115409;28;20473;-72
2021/12/26 08:54:30;;;;;;;38.17;19.60;;;;;;;;;;5115849;28;20119;-72
2021/12/26 08:56:56;;;;;;;31.73;17.30;;;;;;;;;;5115467;28;20389;-73
2021/12/26 08:59:24;;;;;;;153.35;55.45;;;;;;;;;;5115382;28;20036;-69
2021/12/26 09:01:50;;;;;;;197.25;106.72;;;;;;;;;;5115660;28;20058;-75
2021/12/26 09:04:15;;;;;;;92.10;48.20;;;;;;;;;;5115224;28;20063;-75
2021/12/26 09:06:48;;;;;;;73.60;35.22;;;;;;;;;;5115210;28;20471;-76
2021/12/26 09:09:17;;;;;;;17.40;10.75;;;;;;;;;;5115780;28;20462;-76
2021/12/26 09:11:44;;;;;;;14.80;9.98;;;;;;;;;;5115302;28;20051;-76
2021/12/26 09:14:09;;;;;;;16.55;9.68;;;;;;;;;;5115012;28;20114;-75
2021/12/26 09:16:35;;;;;;;20.85;11.40;;;;;;;;;;5115187;28;20047;-76
2021/12/26 09:19:07;;;;;;;72.03;39.40;;;;;;;;;;5115026;28;20122;-76
2021/12/26 09:21:42;;;;;;;56.05;28.13;;;;;;;;;;5115211;28;20119;-76
2021/12/26 09:24:07;;;;;;;27.30;14.00;;;;;;;;;;5114653;28;20381;-75
2021/12/26 09:26:33;;;;;;;50.90;24.20;;;;;;;;;;5115101;28;20030;-78
2021/12/26 09:28:58;;;;;;;37.33;24.20;;;;;;;;;;5114819;28;20042;-77
2021/12/26 09:31:24;;;;;;;48.67;27.08;;;;;;;;;;5112772;28;20062;-78
2021/12/26 09:33:49;;;;;;;43.63;23.02;;;;;;;;;;5112670;28;20038;-78
2021/12/26 09:36:15;;;;;;;18.95;9.10;;;;;;;;;;5114498;28;20023;-77
2021/12/26 09:38:40;;;;;;;46.42;20.30;;;;;;;;;;5114555;28;20032;-78
2021/12/26 09:41:06;;;;;;;76.90;33.22;;;;;;;;;;5114446;28;20023;-78
2021/12/26 09:43:31;;;;;;;42.28;19.77;;;;;;;;;;5114579;28;20390;-77
2021/12/26 09:45:57;;;;;;;63.55;33.00;;;;;;;;;;5096248;28;20496;-77
2021/12/26 09:48:22;;;;;;;49.20;24.17;;;;;;;;;;5114346;28;20035;-77
2021/12/26 09:50:47;;;;;;;46.40;24.73;;;;;;;;;;5114094;28;20032;-78
2021/12/26 09:53:13;;;;;;;41.60;21.95;;;;;;;;;;5114035;28;20054;-78
2021/12/26 09:55:41;;;;;;;146.00;58.75;;;;;;;;;;5114078;28;20062;-78
2021/12/26 09:58:07;;;;;;;43.17;22.27;;;;;;;;;;5114024;28;20062;-77
2021/12/26 10:00:42;;;;;;;23.30;13.95;;;;;;;;;;5114020;28;20499;-77
2021/12/26 10:03:10;;;;;;;26.17;14.98;;;;;;;;;;5114262;28;20047;-78
2021/12/26 10:05:53;;;;;;;42.30;23.45;;;;;;;;;;5114196;28;20027;-78
2021/12/26 10:08:19;;;;;;;28.15;15.70;;;;;;;;;;5114069;28;20028;-77
2021/12/26 10:11:02;;;;;;;42.28;19.75;;;;;;;;;;5114077;28;20042;-77
2021/12/26 10:13:44;;;;;;;21.95;12.30;;;;;;;;;;5113676;28;20082;-79
2021/12/26 10:16:11;;;;;;;30.90;14.25;;;;;;;;;;5114239;28;20485;-75
2021/12/26 10:18:39;;;;;;;25.13;13.25;;;;;;;;;;5096076;28;20031;-66
2021/12/26 10:21:23;;;;;;;30.75;15.43;;;;;;;;;;5113964;28;20474;-68
2021/12/26 10:23:49;;;;;;;28.85;15.75;;;;;;;;;;5096007;28;20034;-67
2021/12/26 10:26:19;;;;;;;35.50;17.50;;;;;;;;;;5095998;28;20023;-68
2021/12/26 10:29:02;;;;;;;24.73;12.95;;;;;;;;;;5114150;28;20043;-69
2021/12/26 10:31:28;;;;;;;32.03;15.32;;;;;;;;;;5114274;28;20506;-69
2021/12/26 10:33:53;;;;;;;27.02;15.30;;;;;;;;;;5113865;28;20067;-69
2021/12/26 10:36:19;;;;;;;32.20;17.17;;;;;;;;;;5113677;28;20035;-69
2021/12/26 10:39:04;;;;;;;34.60;18.00;;;;;;;;;;5095435;28;20016;-69
2021/12/26 10:41:31;;;;;;;41.60;21.35;;;;;;;;;;5095708;28;20039;-69
2021/12/26 10:43:56;;;;;;;31.38;17.27;;;;;;;;;;5095851;28;20457;-70
2021/12/26 10:46:22;;;;;;;26.48;13.52;;;;;;;;;;5095560;28;20046;-70
2021/12/26 10:48:47;;;;;;;26.77;13.75;;;;;;;;;;5113479;28;20490;-69
2021/12/26 10:51:32;;;;;;;26.90;13.02;;;;;;;;;;5113536;28;20052;-69
2021/12/26 10:54:16;;;;;;;25.67;12.95;;;;;;;;;;5113093;28;20072;-69
2021/12/26 10:56:42;;;;;;;28.75;13.40;;;;;;;;;;5113293;28;20644;-69
2021/12/26 10:59:17;;;;;;;32.45;16.77;;;;;;;;;;5113364;28;20111;-68
2021/12/26 11:01:43;;;;;;;28.20;14.75;;;;;;;;;;5113465;28;20492;-69
2021/12/26 11:04:10;;;;;;;28.63;14.68;;;;;;;;;;5113282;28;20023;-69
2021/12/26 11:06:55;;;;;;;33.03;17.10;;;;;;;;;;5113256;28;20122;-69
2021/12/26 11:09:21;;;;;;;39.95;19.30;;;;;;;;;;5113453;28;20515;-69
2021/12/26 11:12:26;;;;;;;22.25;12.38;;;;;;;;;;5113251;28;20059;-69
2021/12/26 11:14:58;;;;;;;28.55;14.48;;;;;;;;;;5071926;28;20055;-69
2021/12/26 11:17:30;;;;;;;23.70;12.18;;;;;;;;;;5113137;28;20085;-69
2021/12/26 11:19:56;;;;;;;34.10;14.82;;;;;;;;;;5094865;28;20040;-69
2021/12/26 11:22:22;;;;;;;29.73;13.60;;;;;;;;;;5094676;28;20452;-69
2021/12/26 11:24:49;;;;;;;34.80;17.77;;;;;;;;;;5113298;28;20134;-69
2021/12/26 11:27:14;;;;;;;33.13;16.05;;;;;;;;;;5113025;28;20397;-68
2021/12/26 11:29:40;;;;;;;24.70;13.40;;;;;;;;;;5094818;28;20039;-69
2021/12/26 11:32:06;;;;;;;22.05;11.20;;;;;;;;;;5095010;28;20020;-67
2021/12/26 11:34:33;;;;;;;40.40;18.20;;;;;;;;;;5113347;28;20035;-68
2021/12/26 11:36:59;;;;;;;36.22;16.73;;;;;;;;;;5095000;28;20028;-68
2021/12/26 11:40:03;;;;;;;38.67;16.95;;;;;;;;;;5113451;28;20039;-68
2021/12/26 11:42:59;;;;;;;37.65;17.48;;;;;;;;;;5113776;28;20078;-68
2021/12/26 11:45:46;;;;;;;22.48;11.48;;;;;;;;;;5114221;28;20059;-68
2021/12/26 11:48:49;;;;;;;28.80;14.50;;;;;;;;;;5117553;28;20409;-67
2021/12/26 11:51:33;;;;;;;28.35;12.60;;;;;;;;;;5117211;28;20046;-67
2021/12/26 11:54:19;;;;;;;28.58;13.20;;;;;;;;;;5102123;28;20551;-68
2021/12/26 11:57:08;;;;;;;22.52;12.40;;;;;;;;;;5098800;28;20077;-68
2021/12/26 11:59:44;;;;;;;10.73;6.80;;;;;;;;;;5098235;28;20397;-68
2021/12/26 12:02:11;;;;;;;28.10;12.20;;;;;;;;;;5116630;28;20054;-68
2021/12/26 12:04:37;;;;;;;23.30;10.13;;;;;;;;;;5116506;28;20359;-68
2021/12/26 12:07:04;;;;;;;19.88;9.88;;;;;;;;;;5098466;28;20446;-68
2021/12/26 12:09:32;;;;;;;27.20;11.82;;;;;;;;;;5098180;28;20020;-68
2021/12/26 12:11:59;;;;;;;27.48;10.60;;;;;;;;;;5116713;28;20377;-68
2021/12/26 12:14:43;;;;;;;23.05;8.98;;;;;;;;;;5116685;28;20071;-67
2021/12/26 12:17:14;;;;;;;24.15;10.07;;;;;;;;;;5115097;28;20035;-77
2021/12/26 12:20:00;;;;;;;21.80;9.40;;;;;;;;;;5116262;28;20055;-78
2021/12/26 12:22:25;;;;;;;13.73;6.78;;;;;;;;;;5073942;28;20039;-78
2021/12/26 12:24:52;;;;;;;16.13;8.10;;;;;;;;;;5098036;28;20080;-77
2021/12/26 12:27:22;;;;;;;24.75;11.35;;;;;;;;;;5116129;28;20024;-78
2021/12/26 12:29:57;;;;;;;28.05;13.75;;;;;;;;;;5116143;28;20040;-78
2021/12/26 12:32:26;;;;;;;12.23;5.90;;;;;;;;;;5097672;28;20401;-78
2021/12/26 12:35:16;;;;;;;10.93;6.15;;;;;;;;;;5097775;28;20144;-77
2021/12/26 12:37:48;;;;;;;18.73;9.53;;;;;;;;;;5116019;28;20044;-77
2021/12/26 12:40:16;;;;;;;15.88;7.78;;;;;;;;;;5115717;28;20039;-78
2021/12/26 12:43:05;;;;;;;12.88;7.10;;;;;;;;;;5116094;28;20028;-77
2021/12/26 12:45:50;;;;;;;14.95;7.65;;;;;;;;;;5115944;28;20060;-77
2021/12/26 12:51:19;;;;;;;3.72;3.20;;;;;;;;;;5115761;28;20042;-77
2021/12/26 12:53:45;;;;;;;6.65;3.67;;;;;;;;;;5106900;28;20040;-77
2021/12/26 12:56:30;;;;;;;13.75;6.50;;;;;;;;;;5116087;28;20039;-76
2021/12/26 12:59:18;;;;;;;10.98;5.68;;;;;;;;;;5114808;28;20039;-76
2021/12/26 13:01:53;;;;;;;12.73;6.45;;;;;;;;;;5097515;28;20048;-76
2021/12/26 13:04:21;;;;;;;26.58;12.18;;;;;;;;;;5115365;28;20477;-77
2021/12/26 13:07:00;;;;;;;17.42;8.07;;;;;;;;;;5115415;28;20055;-76
2021/12/26 13:09:26;;;;;;;13.05;7.75;;;;;;;;;;5114698;28;20044;-75
2021/12/26 13:12:04;;;;;;;10.35;6.25;;;;;;;;;;5097754;28;20027;-76
2021/12/26 13:14:36;;;;;;;13.43;7.13;;;;;;;;;;5096689;28;20043;-76
2021/12/26 13:17:02;;;;;;;14.85;8.80;;;;;;;;;;5115198;28;20073;-77
2021/12/26 13:19:29;;;;;;;16.83;8.68;;;;;;;;;;5097092;28;20438;-76
2021/12/26 13:21:58;;;;;;;15.30;8.00;;;;;;;;;;5115148;28;20482;-76
2021/12/26 13:27:39;;;;;;;5.90;3.88;;;;;;;;;;5115014;28;20036;-76
2021/12/26 13:30:05;;;;;;;8.02;4.80;;;;;;;;;;5115046;28;20039;-68
2021/12/26 13:32:39;;;;;;;272.70;92.53;;;;;;;;;;5114562;28;20027;-75
2021/12/26 13:35:05;;;;;;;247.30;83.68;;;;;;;;;;5114711;28;20088;-75
2021/12/26 13:40:53;;;;;;;288.10;98.97;;;;;;;;;;5114822;28;20035;-80
2021/12/26 13:43:38;;;;;;;114.90;44.67;;;;;;;;;;5097253;28;20040;-79
2021/12/26 13:46:05;;;;;;;51.33;19.70;;;;;;;;;;5114635;28;20081;-78
2021/12/26 13:48:44;;;;;;;178.05;79.35;;;;;;;;;;5079550;28;20126;-79
2021/12/26 13:51:16;;;;;;;62.97;38.22;;;;;;;;;;5114541;28;20039;-80
2021/12/26 13:54:10;;;;;;;77.20;41.40;;;;;;;;;;5113117;28;20027;-81
2021/12/26 13:57:03;;;;;;;53.60;25.75;;;;;;;;;;5114425;28;20048;-81
2021/12/26 13:59:43;;;;;;;65.50;28.85;;;;;;;;;;5110887;28;20048;-71
2021/12/26 14:02:11;;;;;;;42.95;20.05;;;;;;;;;;5096565;28;20032;-70
2021/12/26 14:04:41;;;;;;;76.45;34.38;;;;;;;;;;5096176;28;20472;-70
2021/12/26 14:07:07;;;;;;;92.70;43.47;;;;;;;;;;5114485;28;20097;-70
2021/12/26 14:09:38;;;;;;;111.22;49.75;;;;;;;;;;5114142;28;20374;-70
2021/12/26 14:12:04;;;;;;;104.70;49.08;;;;;;;;;;5113342;28;20094;-70
2021/12/26 14:14:32;;;;;;;123.18;53.03;;;;;;;;;;5096297;28;20451;-70
2021/12/26 14:17:04;;;;;;;128.13;56.70;;;;;;;;;;5096003;28;20043;-70
2021/12/26 14:19:30;;;;;;;130.13;59.33;;;;;;;;;;5095395;28;20066;-70
2021/12/26 14:21:55;;;;;;;127.53;61.83;;;;;;;;;;5113941;28;20019;-70
2021/12/26 14:24:22;;;;;;;135.07;65.30;;;;;;;;;;5114085;28;20039;-69
2021/12/26 14:26:47;;;;;;;125.63;62.17;;;;;;;;;;5095571;28;20031;-69
2021/12/26 14:29:14;;;;;;;113.97;58.20;;;;;;;;;;5113995;28;20042;-69
2021/12/26 14:31:43;;;;;;;107.70;57.40;;;;;;;;;;5113912;28;20023;-69
2021/12/26 14:34:13;;;;;;;169.18;84.75;;;;;;;;;;5078820;28;20130;-70
2021/12/26 14:36:44;;;;;;;253.15;124.10;;;;;;;;;;5113873;28;20478;-70
2021/12/26 14:39:09;;;;;;;315.23;145.25;;;;;;;;;;5114135;28;20032;-70
2021/12/26 14:41:36;;;;;;;293.25;136.93;;;;;;;;;;5095596;28;20035;-70
2021/12/26 14:44:13;;;;;;;212.52;83.50;;;;;;;;;;5113826;28;20048;-70
2021/12/26 14:46:39;;;;;;;200.45;77.05;;;;;;;;;;5113693;28;20539;-70
2021/12/26 14:49:08;;;;;;;296.35;119.30;;;;;;;;;;5113877;28;20027;-70
2021/12/26 14:51:34;;;;;;;278.60;119.60;;;;;;;;;;5113622;28;20047;-70
2021/12/26 14:54:04;;;;;;;139.40;59.90;;;;;;;;;;5114083;28;20085;-70